createdAt,value
2023-06-06T00:00:10.829Z,100.00
2023-06-06T00:02:42.247Z,100.00
2023-06-06T00:05:12.623Z,100.00
2023-06-06T00:07:41.473Z,100.00
2023-06-06T00:10:10.884Z,100.00
2023-06-06T00:12:42.424Z,100.00
2023-06-06T00:15:11.899Z,100.00
2023-06-06T00:17:40.013Z,100.00
2023-06-06T00:20:09.320Z,100.00
2023-06-06T00:22:37.794Z,100.00
2023-06-06T00:25:07.296Z,100.00
2023-06-06T00:27:36.777Z,100.00
2023-06-06T00:30:07.340Z,100.00
2023-06-06T00:32:35.317Z,100.00
2023-06-06T00:35:04.303Z,100.00
2023-06-06T00:37:32.342Z,100.00
2023-06-06T00:40:00.350Z,100.00
2023-06-06T00:42:28.289Z,100.00
2023-06-06T00:44:56.271Z,100.00
2023-06-06T00:47:26.293Z,97.68
2023-06-06T00:49:55.143Z,94.85
2023-06-06T00:52:23.517Z,92.58
2023-06-06T00:54:52.370Z,92.91
2023-06-06T00:57:21.403Z,93.44
2023-06-06T00:59:49.562Z,91.94
2023-06-06T01:02:20.109Z,92.08
2023-06-06T01:04:49.893Z,92.64
2023-06-06T01:07:18.788Z,92.69
2023-06-06T01:09:48.397Z,93.25
2023-06-06T01:12:26.079Z,92.83
2023-06-06T01:15:02.461Z,93.60
2023-06-06T01:17:35.046Z,93.92
2023-06-06T01:20:07.496Z,95.54
2023-06-06T01:22:43.980Z,97.46
2023-06-06T01:25:13.716Z,100.00
2023-06-06T01:27:41.745Z,100.00
2023-06-06T01:30:10.456Z,100.00
2023-06-06T01:32:57.174Z,100.00
2023-06-06T01:35:31.542Z,100.00
2023-06-06T01:38:09.386Z,100.00
2023-06-06T01:40:39.502Z,100.00
2023-06-06T01:43:09.696Z,100.00
2023-06-06T01:45:40.590Z,100.00
2023-06-06T01:48:09.004Z,100.00
2023-06-06T01:50:37.783Z,100.00
2023-06-06T01:53:07.121Z,100.00
2023-06-06T01:55:37.978Z,100.00
2023-06-06T01:58:06.874Z,100.00
2023-06-06T02:00:34.952Z,100.00
2023-06-06T02:03:03.710Z,100.00
2023-06-06T02:05:31.728Z,100.00
2023-06-06T02:08:00.445Z,100.00
2023-06-06T02:10:29.802Z,100.00
2023-06-06T02:12:57.728Z,100.00
2023-06-06T02:15:27.739Z,100.00
2023-06-06T02:17:55.945Z,100.00
2023-06-06T02:20:24.064Z,100.00
2023-06-06T02:22:53.693Z,100.00
2023-06-06T02:25:25.235Z,100.00
2023-06-06T02:27:55.318Z,100.00
2023-06-06T02:30:24.104Z,100.00
2023-06-06T02:32:52.197Z,100.00
2023-06-06T02:35:20.876Z,100.00
2023-06-06T02:37:48.844Z,100.00
2023-06-06T02:40:16.799Z,100.00
2023-06-06T02:42:45.024Z,100.00
2023-06-06T02:45:14.502Z,100.00
2023-06-06T02:47:42.476Z,100.00
2023-06-06T02:50:11.873Z,100.00
2023-06-06T02:52:42.446Z,100.00
2023-06-06T02:55:10.927Z,100.00
2023-06-06T02:57:38.937Z,100.00
2023-06-06T03:00:09.995Z,100.00
2023-06-06T03:02:39.678Z,100.00
2023-06-06T03:05:08.424Z,100.00
2023-06-06T03:07:38.454Z,100.00
2023-06-06T03:10:07.272Z,100.00
2023-06-06T03:12:35.205Z,100.00
2023-06-06T03:15:03.327Z,100.00
2023-06-06T03:17:31.394Z,100.00
2023-06-06T03:20:00.737Z,100.00
2023-06-06T03:22:29.776Z,100.00
2023-06-06T03:24:58.643Z,100.00
2023-06-06T03:27:27.862Z,100.00
2023-06-06T03:29:57.096Z,100.00
2023-06-06T03:32:25.126Z,100.00
2023-06-06T03:34:53.061Z,100.00
2023-06-06T03:37:22.420Z,100.00
2023-06-06T03:39:50.372Z,100.00
2023-06-06T03:42:18.338Z,100.00
2023-06-06T03:44:46.301Z,100.00
2023-06-06T03:47:14.260Z,100.00
2023-06-06T03:49:42.535Z,100.00
2023-06-06T03:52:11.711Z,100.00
2023-06-06T03:54:42.320Z,100.00
2023-06-06T03:57:11.786Z,100.00
2023-06-06T03:59:40.399Z,100.00
2023-06-06T04:02:08.463Z,100.00
2023-06-06T04:04:38.150Z,100.00
2023-06-06T04:07:22.088Z,100.00
2023-06-06T04:09:52.252Z,100.00
2023-06-06T04:12:20.177Z,100.00
2023-06-06T04:14:48.780Z,100.00
2023-06-06T04:17:16.799Z,100.00
2023-06-06T04:19:44.741Z,100.00
2023-06-06T04:22:12.618Z,100.00
2023-06-06T04:24:40.690Z,100.00
2023-06-06T04:27:10.722Z,100.00
2023-06-06T04:29:42.184Z,100.00
2023-06-06T04:32:10.780Z,100.00
2023-06-06T04:34:42.493Z,100.00
2023-06-06T04:37:10.729Z,100.00
2023-06-06T04:39:41.059Z,100.00
2023-06-06T04:42:10.741Z,100.00
2023-06-06T04:44:42.736Z,100.00
2023-06-06T04:47:12.153Z,100.00
2023-06-06T04:49:41.749Z,100.00
2023-06-06T04:52:11.606Z,100.00
2023-06-06T04:54:40.634Z,100.00
2023-06-06T04:57:16.441Z,100.00
2023-06-06T04:59:52.283Z,100.00
2023-06-06T05:02:23.101Z,100.00
2023-06-06T05:04:53.897Z,100.00
2023-06-06T05:07:25.070Z,100.00
2023-06-06T05:09:53.534Z,100.00
2023-06-06T05:12:23.479Z,100.00
2023-06-06T05:14:51.575Z,100.00
2023-06-06T05:17:21.850Z,100.00
2023-06-06T05:19:50.266Z,100.00
2023-06-06T05:22:18.430Z,100.00
2023-06-06T05:24:46.800Z,100.00
2023-06-06T05:27:14.881Z,100.00
2023-06-06T05:29:44.894Z,100.00
2023-06-06T05:32:14.576Z,100.00
2023-06-06T05:34:42.691Z,100.00
2023-06-06T05:37:10.722Z,100.00
2023-06-06T05:39:38.789Z,100.00
2023-06-06T05:42:07.752Z,100.00
2023-06-06T05:44:36.563Z,100.00
2023-06-06T05:47:06.718Z,100.00
2023-06-06T05:49:34.784Z,100.00
2023-06-06T05:52:03.396Z,100.00
2023-06-06T05:54:41.556Z,100.00
2023-06-06T05:57:22.472Z,100.00
2023-06-06T05:59:50.919Z,100.00
2023-06-06T06:02:21.747Z,100.00
2023-06-06T06:04:55.081Z,100.00
2023-06-06T06:07:23.617Z,100.00
2023-06-06T06:09:52.194Z,100.00
2023-06-06T06:12:20.248Z,100.00
2023-06-06T06:14:48.202Z,100.00
2023-06-06T06:17:16.177Z,100.00
2023-06-06T06:19:45.490Z,100.00
2023-06-06T06:22:13.440Z,100.00
2023-06-06T06:24:41.470Z,100.00
2023-06-06T06:27:09.474Z,100.00
2023-06-06T06:29:37.514Z,100.00
2023-06-06T06:32:06.092Z,100.00
2023-06-06T06:34:35.252Z,100.00
2023-06-06T06:37:05.361Z,100.00
2023-06-06T06:39:33.269Z,100.00
2023-06-06T06:42:01.189Z,100.00
2023-06-06T06:44:29.174Z,100.00
2023-06-06T06:46:57.172Z,100.00
2023-06-06T06:49:25.211Z,100.00
2023-06-06T06:51:53.863Z,100.00
2023-06-06T06:54:25.300Z,100.00
2023-06-06T06:56:54.476Z,100.00
2023-06-06T06:59:22.662Z,100.00
2023-06-06T07:01:50.921Z,100.00
2023-06-06T07:04:19.216Z,100.00
2023-06-06T07:06:47.862Z,100.00
2023-06-06T07:09:16.358Z,100.00
2023-06-06T07:11:45.700Z,100.00
2023-06-06T07:14:13.859Z,100.00
2023-06-06T07:16:43.286Z,100.00
2023-06-06T07:19:11.267Z,99.87
2023-06-06T07:21:39.291Z,100.00
2023-06-06T07:24:08.184Z,97.81
2023-06-06T07:26:36.379Z,100.00
2023-06-06T07:29:05.923Z,100.00
2023-06-06T07:31:34.784Z,100.00
2023-06-06T07:34:03.649Z,98.83
2023-06-06T07:36:32.138Z,100.00
2023-06-06T07:39:00.090Z,100.00
2023-06-06T07:41:30.439Z,100.00
2023-06-06T07:43:58.519Z,100.00
2023-06-06T07:46:27.918Z,100.00
2023-06-06T07:48:55.909Z,96.58
2023-06-06T07:51:23.878Z,94.83
2023-06-06T07:53:52.593Z,94.28
2023-06-06T07:56:21.992Z,93.74
2023-06-06T07:58:53.941Z,96.15
2023-06-06T08:01:22.792Z,96.51
2023-06-06T08:03:52.389Z,96.14
2023-06-06T08:06:20.709Z,96.50
2023-06-06T08:08:49.636Z,100.00
2023-06-06T08:11:18.670Z,100.00
2023-06-06T08:13:46.716Z,99.54
2023-06-06T08:16:14.830Z,96.20
2023-06-06T08:18:42.743Z,97.26
2023-06-06T08:21:12.376Z,96.97
2023-06-06T08:23:40.348Z,100.00
2023-06-06T08:26:08.873Z,100.00
2023-06-06T08:28:37.315Z,100.00
2023-06-06T08:31:05.434Z,93.57
2023-06-06T08:33:33.506Z,95.05
2023-06-06T08:36:04.035Z,100.00
2023-06-06T08:38:33.769Z,97.78
2023-06-06T08:41:03.524Z,91.72
2023-06-06T08:43:37.840Z,95.74
2023-06-06T08:46:06.343Z,93.50
2023-06-06T08:48:36.681Z,97.61
2023-06-06T08:51:06.083Z,94.26
2023-06-06T08:53:35.703Z,95.80
2023-06-06T08:56:04.183Z,99.92
2023-06-06T08:58:33.318Z,100.00
2023-06-06T09:01:03.650Z,99.05
2023-06-06T09:03:35.644Z,99.92
2023-06-06T09:06:06.719Z,98.31
2023-06-06T09:08:36.860Z,96.36
2023-06-06T09:11:04.838Z,96.87
2023-06-06T09:13:33.169Z,97.76
2023-06-06T09:16:01.766Z,99.61
2023-06-06T09:18:30.517Z,95.13
2023-06-06T09:20:59.286Z,100.00
2023-06-06T09:23:31.100Z,96.12
2023-06-06T09:26:01.246Z,98.04
2023-06-06T09:28:39.654Z,97.29
2023-06-06T09:31:24.785Z,100.00
2023-06-06T09:33:54.295Z,97.54
2023-06-06T09:36:24.690Z,100.00
2023-06-06T09:38:52.855Z,98.64
2023-06-06T09:41:22.735Z,100.00
2023-06-06T09:43:52.034Z,100.00
2023-06-06T09:46:20.938Z,97.60
2023-06-06T09:48:58.168Z,97.61
2023-06-06T09:51:26.209Z,96.87
2023-06-06T09:53:54.296Z,93.89
2023-06-06T09:56:25.831Z,91.28
2023-06-06T09:58:59.440Z,91.24
2023-06-06T10:01:33.906Z,91.16
2023-06-06T10:04:04.677Z,96.40
2023-06-06T10:06:35.712Z,90.05
2023-06-06T10:09:05.796Z,91.99
2023-06-06T10:11:36.731Z,87.54
2023-06-06T10:14:06.772Z,85.90
2023-06-06T10:16:37.470Z,87.56
2023-06-06T10:19:06.469Z,84.08
2023-06-06T10:21:34.947Z,82.22
2023-06-06T10:24:03.823Z,83.66
2023-06-06T10:26:45.116Z,87.28
2023-06-06T10:29:19.106Z,85.92
2023-06-06T10:31:54.472Z,82.25
2023-06-06T10:34:25.969Z,80.88
2023-06-06T10:36:55.952Z,83.09
2023-06-06T10:39:25.287Z,83.05
2023-06-06T10:41:56.276Z,84.35
2023-06-06T10:44:28.980Z,77.32
2023-06-06T10:47:29.807Z,77.88
2023-06-06T10:50:24.261Z,81.03
2023-06-06T10:52:53.943Z,79.71
2023-06-06T10:55:46.463Z,78.32
2023-06-06T10:58:28.996Z,77.01
2023-06-06T11:01:04.427Z,75.28
2023-06-06T11:03:38.144Z,71.85
2023-06-06T11:06:12.943Z,70.79
2023-06-06T11:08:44.327Z,70.28
2023-06-06T11:11:27.874Z,67.16
2023-06-06T11:14:04.753Z,66.73
2023-06-06T11:16:59.181Z,64.05
2023-06-06T11:19:38.726Z,64.95
2023-06-06T11:22:07.727Z,61.08
2023-06-06T11:24:38.546Z,60.93
2023-06-06T11:27:08.358Z,59.83
2023-06-06T11:29:38.827Z,59.10
2023-06-06T11:32:12.049Z,57.46
2023-06-06T11:34:40.784Z,57.15
2023-06-06T11:37:09.809Z,56.04
2023-06-06T11:39:38.297Z,54.65
2023-06-06T11:42:06.995Z,55.53
2023-06-06T11:44:38.612Z,56.75
2023-06-06T11:47:10.672Z,55.06
2023-06-06T11:49:46.882Z,55.59
2023-06-06T11:52:16.740Z,55.64
2023-06-06T11:55:05.874Z,55.12
2023-06-06T11:57:35.011Z,55.87
2023-06-06T12:00:16.557Z,56.79
2023-06-06T12:02:49.959Z,57.70
2023-06-06T12:05:22.327Z,58.04
2023-06-06T12:07:52.033Z,60.05
2023-06-06T12:10:28.372Z,60.72
2023-06-06T12:12:57.024Z,59.32
2023-06-06T12:15:28.994Z,59.30
2023-06-06T12:18:03.644Z,62.17
2023-06-06T12:20:32.020Z,62.24
2023-06-06T12:22:59.961Z,62.49
2023-06-06T12:25:29.042Z,62.58
2023-06-06T12:28:08.869Z,60.24
2023-06-06T12:30:40.295Z,59.12
2023-06-06T12:33:08.466Z,58.94
2023-06-06T12:35:36.477Z,60.03
2023-06-06T12:38:06.172Z,56.56
2023-06-06T12:40:36.162Z,54.16
2023-06-06T12:43:06.281Z,55.07
2023-06-06T12:45:37.410Z,53.41
2023-06-06T12:48:07.607Z,52.14
2023-06-06T12:50:35.844Z,51.67
2023-06-06T12:53:04.519Z,51.11
2023-06-06T12:55:32.800Z,50.69
2023-06-06T12:58:00.833Z,49.12
2023-06-06T13:00:29.354Z,50.08
2023-06-06T13:03:00.177Z,49.03
2023-06-06T13:05:29.595Z,48.67
2023-06-06T13:07:57.831Z,47.66
2023-06-06T13:10:26.090Z,48.52
2023-06-06T13:12:54.376Z,48.26
2023-06-06T13:15:22.569Z,46.50
2023-06-06T13:17:50.575Z,46.28
2023-06-06T13:20:19.921Z,48.21
2023-06-06T13:22:50.093Z,48.31
2023-06-06T13:25:19.414Z,47.34
2023-06-06T13:27:47.403Z,47.89
2023-06-06T13:30:15.905Z,48.08
2023-06-06T13:32:43.997Z,48.21
2023-06-06T13:35:12.856Z,47.89
2023-06-06T13:37:40.896Z,47.86
2023-06-06T13:40:11.266Z,47.29
2023-06-06T13:42:39.301Z,47.47
2023-06-06T13:45:09.357Z,47.44
2023-06-06T13:47:37.682Z,47.59
2023-06-06T13:50:06.472Z,48.60
2023-06-06T13:52:36.042Z,47.32
2023-06-06T13:55:05.244Z,47.46
2023-06-06T13:57:41.934Z,48.62
2023-06-06T14:00:12.965Z,46.77
2023-06-06T14:02:41.287Z,46.27
2023-06-06T14:05:09.908Z,46.58
2023-06-06T14:07:37.946Z,46.36
2023-06-06T14:10:07.848Z,46.64
2023-06-06T14:12:38.822Z,45.56
2023-06-06T14:15:09.420Z,45.65
2023-06-06T14:17:37.617Z,45.32
2023-06-06T14:20:13.388Z,45.84
2023-06-06T14:22:42.161Z,44.80
2023-06-06T14:25:10.526Z,45.06
2023-06-06T14:27:40.751Z,44.67
2023-06-06T14:30:10.225Z,45.22
2023-06-06T14:35:08.832Z,45.98
2023-06-06T14:37:36.858Z,45.62
2023-06-06T14:40:07.600Z,45.49
2023-06-06T14:42:36.205Z,45.83
2023-06-06T14:45:06.555Z,47.01
2023-06-06T14:47:34.637Z,48.15
2023-06-06T14:50:02.654Z,48.11
2023-06-06T14:52:30.785Z,46.60
2023-06-06T14:54:59.399Z,46.82
2023-06-06T14:57:28.190Z,48.06
2023-06-06T14:59:57.049Z,46.58
2023-06-06T15:02:27.235Z,47.12
2023-06-06T15:04:55.457Z,47.43
2023-06-06T15:07:23.859Z,48.26
2023-06-06T15:09:51.759Z,47.90
2023-06-06T15:12:20.365Z,49.60
2023-06-06T15:14:48.493Z,50.17
2023-06-06T15:17:16.622Z,51.07
2023-06-06T15:19:47.721Z,51.65
2023-06-06T15:22:16.636Z,53.16
2023-06-06T15:24:45.332Z,52.92
2023-06-06T15:27:13.793Z,52.81
2023-06-06T15:29:45.046Z,52.36
2023-06-06T15:32:13.293Z,52.46
2023-06-06T15:34:42.122Z,52.46
2023-06-06T15:37:11.675Z,52.57
2023-06-06T15:39:45.257Z,52.00
2023-06-06T15:42:16.541Z,52.24
2023-06-06T15:44:44.468Z,53.14
2023-06-06T15:47:12.750Z,53.83
2023-06-06T15:49:40.922Z,55.61
2023-06-06T15:52:09.080Z,55.31
2023-06-06T15:54:38.376Z,54.63
2023-06-06T15:57:07.189Z,55.33
2023-06-06T15:59:37.826Z,55.70
2023-06-06T16:02:07.886Z,54.80
2023-06-06T16:04:37.296Z,55.64
2023-06-06T16:07:05.796Z,55.59
2023-06-06T16:09:36.000Z,55.35
2023-06-06T16:12:06.153Z,55.69
2023-06-06T16:14:34.321Z,56.02
2023-06-06T16:17:02.301Z,56.15
2023-06-06T16:19:30.598Z,56.32
2023-06-06T16:22:01.825Z,56.92
2023-06-06T16:24:29.730Z,56.60
2023-06-06T16:26:57.710Z,56.92
2023-06-06T16:29:27.982Z,57.21
2023-06-06T16:31:56.094Z,56.71
2023-06-06T16:34:24.121Z,55.91
2023-06-06T16:37:03.406Z,54.30
2023-06-06T16:39:31.344Z,53.49
2023-06-06T16:41:59.307Z,54.21
2023-06-06T16:44:29.033Z,53.58
2023-06-06T16:46:57.180Z,52.76
2023-06-06T16:49:25.238Z,53.69
2023-06-06T16:51:53.210Z,51.31
2023-06-06T16:54:22.600Z,50.84
2023-06-06T16:56:50.778Z,50.59
2023-06-06T16:59:18.811Z,51.05
2023-06-06T17:01:48.333Z,51.19
2023-06-06T17:04:16.564Z,50.88
2023-06-06T17:06:44.689Z,50.31
2023-06-06T17:09:13.892Z,50.86
2023-06-06T17:11:42.128Z,50.83
2023-06-06T17:14:10.586Z,51.54
2023-06-06T17:16:38.990Z,51.21
2023-06-06T17:19:08.488Z,51.35
2023-06-06T17:21:36.436Z,51.57
2023-06-06T17:24:04.870Z,52.10
2023-06-06T17:26:32.866Z,52.48
2023-06-06T17:29:00.867Z,52.99
2023-06-06T17:31:30.314Z,53.09
2023-06-06T17:33:58.502Z,53.96
2023-06-06T17:36:27.903Z,54.34
2023-06-06T17:38:56.306Z,53.91
2023-06-06T17:41:24.356Z,54.73
2023-06-06T17:43:52.509Z,55.22
2023-06-06T17:46:20.574Z,55.83
2023-06-06T17:48:51.674Z,55.78
2023-06-06T17:51:20.016Z,56.71
2023-06-06T17:53:49.368Z,56.28
2023-06-06T17:56:17.497Z,56.20
2023-06-06T17:58:45.823Z,56.53
2023-06-06T18:01:13.846Z,56.16
2023-06-06T18:03:41.978Z,56.10
2023-06-06T18:06:09.929Z,56.12
2023-06-06T18:08:39.994Z,56.47
2023-06-06T18:11:09.589Z,57.16
2023-06-06T18:13:37.498Z,56.67
2023-06-06T18:16:06.033Z,57.22
2023-06-06T18:18:34.324Z,56.94
2023-06-06T18:21:02.319Z,57.79
2023-06-06T18:23:30.330Z,57.34
2023-06-06T18:25:58.357Z,58.08
2023-06-06T18:28:27.702Z,57.73
2023-06-06T18:30:55.897Z,58.78
2023-06-06T18:33:24.394Z,58.99
2023-06-06T18:35:52.475Z,59.04
2023-06-06T18:38:23.176Z,60.75
2023-06-06T18:40:52.184Z,60.62
2023-06-06T18:43:20.270Z,61.61
2023-06-06T18:45:50.200Z,62.18
2023-06-06T18:48:18.607Z,62.91
2023-06-06T18:50:48.777Z,62.75
2023-06-06T18:53:16.890Z,62.30
2023-06-06T18:55:44.955Z,63.03
2023-06-06T18:58:14.206Z,63.36
2023-06-06T19:00:42.356Z,63.76
2023-06-06T19:03:11.964Z,64.18
2023-06-06T19:05:40.102Z,64.54
2023-06-06T19:08:08.178Z,65.37
2023-06-06T19:10:36.126Z,66.40
2023-06-06T19:13:04.438Z,66.84
2023-06-06T19:15:33.594Z,67.01
2023-06-06T19:18:01.713Z,67.58
2023-06-06T19:20:31.547Z,68.22
2023-06-06T19:22:59.598Z,69.51
2023-06-06T19:25:28.847Z,70.34
2023-06-06T19:27:56.827Z,71.99
2023-06-06T19:30:24.892Z,74.99
2023-06-06T19:32:52.934Z,76.45
2023-06-06T19:35:22.020Z,78.25
2023-06-06T19:37:51.408Z,79.67
2023-06-06T19:40:21.659Z,82.00
2023-06-06T19:42:49.851Z,82.40
2023-06-06T19:45:18.303Z,85.06
2023-06-06T19:47:49.898Z,86.98
2023-06-06T19:50:18.219Z,89.68
2023-06-06T19:52:46.239Z,92.33
2023-06-06T19:55:15.586Z,93.30
2023-06-06T19:57:44.992Z,95.15
2023-06-06T20:00:14.364Z,96.85
2023-06-06T20:02:43.132Z,99.20
2023-06-06T20:05:13.060Z,100.00
2023-06-06T20:07:42.343Z,100.00
2023-06-06T20:10:12.348Z,100.00
2023-06-06T20:12:42.135Z,100.00
2023-06-06T20:15:11.371Z,100.00
2023-06-06T20:17:40.383Z,100.00
2023-06-06T20:20:11.143Z,100.00
2023-06-06T20:22:39.581Z,100.00
2023-06-06T20:25:08.852Z,100.00
2023-06-06T20:27:36.844Z,100.00
2023-06-06T20:30:07.872Z,100.00
2023-06-06T20:32:36.171Z,100.00
2023-06-06T20:35:05.060Z,100.00
2023-06-06T20:37:39.270Z,100.00
2023-06-06T20:40:22.652Z,100.00
2023-06-06T20:42:51.416Z,100.00
2023-06-06T20:45:20.964Z,100.00
2023-06-06T20:47:49.696Z,100.00
2023-06-06T20:50:17.950Z,100.00
2023-06-06T20:52:45.963Z,100.00
2023-06-06T20:55:14.066Z,100.00
2023-06-06T20:57:42.093Z,100.00
2023-06-06T21:00:12.362Z,100.00
2023-06-06T21:02:42.087Z,100.00
2023-06-06T21:05:10.731Z,100.00
2023-06-06T21:07:39.287Z,100.00
2023-06-06T21:10:08.966Z,100.00
2023-06-06T21:12:37.739Z,100.00
2023-06-06T21:15:07.224Z,100.00
2023-06-06T21:17:35.372Z,100.00
2023-06-06T21:20:06.492Z,100.00
2023-06-06T21:22:34.801Z,100.00
2023-06-06T21:25:04.168Z,100.00
2023-06-06T21:27:32.253Z,100.00
2023-06-06T21:30:00.885Z,100.00
2023-06-06T21:32:29.226Z,100.00
2023-06-06T21:34:57.550Z,100.00
2023-06-06T21:37:28.851Z,100.00
2023-06-06T21:39:57.290Z,100.00
2023-06-06T21:42:28.340Z,100.00
2023-06-06T21:44:58.028Z,100.00
2023-06-06T21:47:26.078Z,100.00
2023-06-06T21:49:54.058Z,100.00
2023-06-06T21:52:22.084Z,100.00
2023-06-06T21:54:51.375Z,100.00
2023-06-06T21:57:19.341Z,100.00
2023-06-06T21:59:48.783Z,100.00
2023-06-06T22:02:18.208Z,100.00
2023-06-06T22:04:48.815Z,100.00
2023-06-06T22:07:16.743Z,100.00
2023-06-06T22:09:44.713Z,100.00
2023-06-06T22:12:14.215Z,100.00
2023-06-06T22:14:42.898Z,100.00
2023-06-06T22:17:10.983Z,100.00
2023-06-06T22:19:39.044Z,100.00
2023-06-06T22:22:07.398Z,100.00
2023-06-06T22:24:35.996Z,100.00
2023-06-06T22:27:04.249Z,100.00
2023-06-06T22:29:33.597Z,100.00
2023-06-06T22:32:01.606Z,100.00
2023-06-06T22:34:29.594Z,100.00
2023-06-06T22:36:57.582Z,100.00
2023-06-06T22:39:25.944Z,100.00
2023-06-06T22:41:53.905Z,100.00
2023-06-06T22:44:21.925Z,100.00
2023-06-06T22:46:51.480Z,100.00
2023-06-06T22:49:19.582Z,100.00
2023-06-06T22:51:47.588Z,100.00
2023-06-06T22:54:15.703Z,100.00
2023-06-06T22:56:43.736Z,100.00
2023-06-06T22:59:11.740Z,100.00
2023-06-06T23:01:39.721Z,100.00
2023-06-06T23:04:09.168Z,100.00
2023-06-06T23:06:37.960Z,100.00
2023-06-06T23:09:06.350Z,100.00
2023-06-06T23:11:34.342Z,100.00
2023-06-06T23:14:02.302Z,100.00
2023-06-06T23:16:30.338Z,100.00
2023-06-06T23:18:58.468Z,100.00
2023-06-06T23:21:29.007Z,100.00
2023-06-06T23:23:57.755Z,100.00
2023-06-06T23:26:26.249Z,100.00
2023-06-06T23:28:54.370Z,100.00
2023-06-06T23:31:22.357Z,100.00
2023-06-06T23:33:50.470Z,100.00
2023-06-06T23:36:18.686Z,100.00
2023-06-06T23:38:48.123Z,100.00
2023-06-06T23:41:16.123Z,100.00
2023-06-06T23:43:44.046Z,100.00
2023-06-06T23:46:12.004Z,100.00
2023-06-06T23:48:40.593Z,100.00
2023-06-06T23:51:08.587Z,100.00
2023-06-06T23:53:36.496Z,100.00
2023-06-06T23:56:06.017Z,100.00
2023-06-06T23:58:33.939Z,100.00
